KTIK/TIK METAR and TAF weather

Enter ICAO airport designator
Station Type Date Time Source
KTIK METAR 2020/07/12 17:56 UTC NOAA

KTIK 121756Z AUTO 33006KT 10SM FEW200 32/20 A2997 RMK AO2 SLP141 T03240199 10324 20216 58010


Station Type Date Time Source
KTIK Decoded METAR 2020/07/12 17:56 UTC NOAA

Tinker Air Force Base, OK, United States (KTIK) 35-25N 097-23W 397M
Jul 12, 2020 - 01:56 PM EDT / 2020.07.12 1756 UTC
Wind: from the NNW (330 degrees) at 7 MPH (6 KT):0
Visibility: 10 mile(s):0
Sky conditions: mostly clear
Temperature: 90.3 F (32.4 C)
Dew Point: 67.8 F (19.9 C)
Relative Humidity: 47%
Pressure (altimeter): 29.97 in. Hg (1014 hPa)
Pressure tendency: 0.03 inches (1.0 hPa) lower than three hours ago
ob: KTIK 121756Z AUTO 33006KT 10SM FEW200 32/20 A2997 RMK AO2 SLP141 T03240199 10324 20216 58010
cycle: 18

Station Type Date Time Source
KTIK TAF 2020/07/12 13:07 UTC NOAA

TAF
AMD KTIK 121300Z 1213/1315 35006KT 9999 FEW130 QNH2992INS
BECMG 1221/1222 09010G15KT 9999 SKC QNH2984INS
BECMG 1314/1315 14012G18KT 9999 FEW130 510042 QNH2986INS TX34/1221Z TN25/1313Z

Example: see airport list